Time;durP1;ratioP1;P1;durP2;ratioP2;P2;SDS_P1;SDS_P2;PMS_P1;PMS_P2;Temp;Humidity;BMP_temperature;BMP_pressure;BME280_temperature;BME280_humidity;BME280_pressure;Samples;Min_cycle;Max_cycle;Signal;HPM_P1;HPM_P2
2023/10/23 00:02:18;;;;;;;14.20;7.10;;;;;;;17.97;62.10;94993.66;5055260;28;20189;-74
2023/10/23 00:04:46;;;;;;;12.25;6.50;;;;;;;17.91;62.18;94995.25;5037794;28;20204;-74
2023/10/23 00:07:13;;;;;;;12.85;6.93;;;;;;;17.84;62.58;94994.47;5038388;28;20208;-74
2023/10/23 00:09:41;;;;;;;13.18;6.05;;;;;;;17.74;62.94;94994.03;5055024;28;20186;-74
2023/10/23 00:12:08;;;;;;;11.35;6.65;;;;;;;17.75;62.69;95001.22;5038374;28;20194;-73
2023/10/23 00:14:36;;;;;;;11.50;6.50;;;;;;;17.75;62.86;94998.44;5054944;28;20205;-73
2023/10/23 00:17:04;;;;;;;14.60;6.68;;;;;;;17.74;62.82;94991.25;5054932;28;20196;-73
2023/10/23 00:19:34;;;;;;;11.73;6.53;;;;;;;17.74;63.11;94994.03;5037694;28;20198;-73
2023/10/23 00:22:01;;;;;;;12.45;7.05;;;;;;;17.72;62.88;94996.44;5037226;28;20196;-73
2023/10/23 00:24:29;;;;;;;14.77;7.75;;;;;;;17.72;63.30;94988.09;5037118;28;20205;-72
2023/10/23 00:26:56;;;;;;;17.25;7.78;;;;;;;17.69;63.39;94999.25;5037939;28;20209;-73
2023/10/23 00:29:24;;;;;;;13.25;7.10;;;;;;;17.66;63.51;95000.03;5038189;28;20190;-73
2023/10/23 00:31:51;;;;;;;13.48;6.57;;;;;;;17.57;63.79;95006.00;5055173;28;20182;-73
2023/10/23 00:34:19;;;;;;;15.15;7.55;;;;;;;17.48;64.19;94995.25;5038035;28;20198;-73
2023/10/23 00:36:50;;;;;;;13.15;6.90;;;;;;;17.47;64.47;94999.25;5055036;28;20197;-73
2023/10/23 00:39:18;;;;;;;15.70;7.47;;;;;;;17.39;64.79;94999.63;5054634;28;20614;-73
2023/10/23 00:41:45;;;;;;;15.20;7.15;;;;;;;17.33;65.18;95000.06;5037640;28;20219;-73
2023/10/23 00:44:14;;;;;;;15.50;7.07;;;;;;;17.40;64.71;94995.69;5054693;28;20190;-73
2023/10/23 00:46:41;;;;;;;16.35;7.28;;;;;;;17.41;64.98;94986.91;5037963;28;20249;-73
2023/10/23 00:49:09;;;;;;;13.10;7.00;;;;;;;17.41;64.61;94986.91;5054685;28;20212;-73
2023/10/23 00:51:36;;;;;;;13.05;7.13;;;;;;;17.33;64.66;94990.91;5054590;28;20197;-73
2023/10/23 00:54:07;;;;;;;14.55;6.95;;;;;;;17.31;65.14;94987.69;5037161;28;20204;-73
2023/10/23 00:56:35;;;;;;;12.57;6.40;;;;;;;17.38;65.64;94986.91;5038792;28;20292;-73
2023/10/23 00:59:02;;;;;;;13.95;6.78;;;;;;;17.43;65.31;94994.84;5040771;28;20267;-73
2023/10/23 01:01:32;;;;;;;14.15;6.70;;;;;;;17.37;65.39;94988.09;5058204;28;20276;-73
2023/10/23 01:04:00;;;;;;;15.35;7.13;;;;;;;17.42;65.42;94993.28;5058080;28;20202;-73
2023/10/23 01:06:29;;;;;;;13.90;6.55;;;;;;;17.50;65.82;94994.84;5058340;28;20233;-73
2023/10/23 01:08:56;;;;;;;13.05;5.95;;;;;;;17.51;65.74;94994.47;5041092;28;20202;-73
2023/10/23 01:11:26;;;;;;;12.70;6.50;;;;;;;17.54;65.52;94990.09;5057937;28;20240;-73
2023/10/23 01:13:53;;;;;;;12.60;6.72;;;;;;;17.59;65.54;94994.47;5040401;28;20213;-73
2023/10/23 01:16:21;;;;;;;17.13;6.97;;;;;;;17.64;65.38;94991.25;5057611;28;20582;-73
2023/10/23 01:18:48;;;;;;;16.05;6.80;;;;;;;17.65;65.57;94985.31;5057868;28;20178;-73
2023/10/23 01:21:16;;;;;;;10.63;6.25;;;;;;;17.67;65.59;94980.09;5057859;28;20193;-73
2023/10/23 01:23:43;;;;;;;13.23;6.05;;;;;;;17.67;65.76;94980.09;5040203;28;20523;-73
2023/10/23 01:26:13;;;;;;;11.07;6.07;;;;;;;17.67;65.62;94979.31;5039872;28;20525;-74
2023/10/23 01:28:41;;;;;;;13.68;6.68;;;;;;;17.66;65.53;94986.88;5040196;28;20613;-74
2023/10/23 01:31:08;;;;;;;14.23;6.05;;;;;;;17.64;65.78;94991.25;5040205;28;20198;-74
2023/10/23 01:33:36;;;;;;;13.88;6.50;;;;;;;17.65;65.63;94990.88;5057269;28;20196;-74
2023/10/23 01:36:04;;;;;;;12.07;6.53;;;;;;;17.66;65.81;94981.31;5057562;28;20196;-74
2023/10/23 01:38:31;;;;;;;16.85;7.05;;;;;;;17.69;65.76;94983.31;5039924;28;20200;-74
2023/10/23 01:40:58;;;;;;;11.05;5.55;;;;;;;17.66;66.24;94981.31;5057473;28;20265;-74
2023/10/23 01:43:27;;;;;;;13.40;6.88;;;;;;;17.69;65.96;94982.50;5040503;28;20202;-74
2023/10/23 01:45:54;;;;;;;14.30;7.10;;;;;;;17.69;65.93;94990.88;5040663;28;20296;-74
2023/10/23 01:48:21;;;;;;;12.00;6.32;;;;;;;17.67;66.09;94988.47;5057372;28;20186;-74
2023/10/23 01:50:49;;;;;;;10.45;6.63;;;;;;;17.65;66.24;94990.88;5057515;28;20201;-74
2023/10/23 01:53:19;;;;;;;11.80;6.47;;;;;;;17.60;66.57;94988.47;5040538;28;20251;-74
2023/10/23 01:55:47;;;;;;;13.00;6.22;;;;;;;17.58;66.44;94993.69;5023175;28;20270;-75
2023/10/23 01:58:14;;;;;;;13.30;6.10;;;;;;;17.55;66.89;94994.47;5017400;28;20191;-73
2023/10/23 02:00:43;;;;;;;12.07;6.50;;;;;;;17.50;66.90;94990.09;5016775;28;20187;-73
2023/10/23 02:03:13;;;;;;;12.18;6.72;;;;;;;17.51;66.84;94990.91;5017157;28;20201;-73
2023/10/23 02:05:42;;;;;;;14.05;6.80;;;;;;;17.50;66.76;94990.09;5016321;28;20257;-73
2023/10/23 02:08:08;;;;;;;13.02;6.80;;;;;;;17.50;66.73;94997.66;5016240;28;20223;-73
2023/10/23 02:10:37;;;;;;;12.93;6.43;;;;;;;17.48;66.90;95000.06;5017157;28;20213;-73
2023/10/23 02:13:04;;;;;;;11.10;6.45;;;;;;;17.45;66.82;94986.91;5016245;28;20294;-74
2023/10/23 02:15:33;;;;;;;18.35;6.55;;;;;;;17.43;67.37;94992.91;5016129;28;20207;-74
2023/10/23 02:18:01;;;;;;;15.65;6.40;;;;;;;17.41;67.08;94994.47;5017023;28;20195;-74
2023/10/23 02:20:28;;;;;;;17.55;6.85;;;;;;;17.38;67.22;94993.28;5016935;28;20187;-74
2023/10/23 02:22:56;;;;;;;16.52;7.05;;;;;;;17.35;67.66;94996.06;5017286;28;20278;-74
2023/10/23 02:25:22;;;;;;;11.77;6.60;;;;;;;17.35;67.81;94994.06;5016684;28;20619;-74
2023/10/23 02:27:49;;;;;;;11.52;6.38;;;;;;;17.30;68.02;94995.28;5016575;28;20180;-74
2023/10/23 02:30:20;;;;;;;13.75;6.82;;;;;;;17.29;67.99;94996.47;5015917;28;20209;-74
2023/10/23 02:32:47;;;;;;;16.20;8.00;;;;;;;17.27;68.19;94990.47;5015866;28;20187;-74
2023/10/23 02:35:18;;;;;;;14.10;7.93;;;;;;;17.24;68.01;94994.06;5016605;28;20202;-73
2023/10/23 02:37:45;;;;;;;18.02;9.57;;;;;;;17.19;68.76;94999.25;5016370;28;20203;-73
2023/10/23 02:40:13;;;;;;;17.63;9.30;;;;;;;17.16;68.54;94997.25;5015980;28;20195;-73
2023/10/23 02:42:40;;;;;;;16.60;9.45;;;;;;;17.12;68.55;94993.69;5016647;28;20195;-76
2023/10/23 02:45:09;;;;;;;15.90;8.75;;;;;;;17.12;68.71;95002.03;5016252;28;20636;-73
2023/10/23 02:47:37;;;;;;;14.00;8.27;;;;;;;17.09;68.85;94996.03;5015756;28;20246;-73
2023/10/23 02:50:06;;;;;;;17.33;8.25;;;;;;;17.07;68.41;95000.44;5016432;28;20183;-74
2023/10/23 02:52:34;;;;;;;16.80;8.20;;;;;;;17.05;68.85;95005.59;5016426;28;20188;-74
2023/10/23 02:55:02;;;;;;;15.20;8.20;;;;;;;17.02;68.65;95001.63;5015701;28;20237;-74
2023/10/23 02:57:29;;;;;;;13.27;8.25;;;;;;;17.00;69.00;94994.88;5016351;28;20206;-75
2023/10/23 02:59:58;;;;;;;15.43;8.50;;;;;;;16.97;68.65;95001.22;5016514;28;20201;-74
2023/10/23 03:02:24;;;;;;;15.75;8.73;;;;;;;16.93;68.81;95004.00;5016519;28;20187;-71
2023/10/23 03:04:51;;;;;;;14.55;8.07;;;;;;;16.91;68.94;95008.38;5016199;28;20194;-73
2023/10/23 03:07:18;;;;;;;15.48;8.50;;;;;;;16.93;68.93;95009.56;5015210;28;20227;-73
2023/10/23 03:09:47;;;;;;;14.98;8.20;;;;;;;16.92;69.25;95009.94;5016200;28;20184;-73
2023/10/23 03:12:15;;;;;;;13.68;7.80;;;;;;;16.92;69.02;95010.78;5016669;28;20214;-73
2023/10/23 03:14:42;;;;;;;15.68;8.13;;;;;;;16.90;69.16;95015.94;5015835;28;20587;-73
2023/10/23 03:17:11;;;;;;;13.85;7.60;;;;;;;16.89;68.92;95011.56;5015215;28;20209;-73
2023/10/23 03:19:38;;;;;;;13.05;7.60;;;;;;;16.83;69.33;95013.13;5015632;28;20179;-73
2023/10/23 03:22:06;;;;;;;17.17;8.05;;;;;;;16.79;69.19;95009.53;5015065;28;20199;-72
2023/10/23 03:24:33;;;;;;;14.25;7.40;;;;;;;16.77;69.64;95006.34;5015244;28;20207;-73
2023/10/23 03:27:04;;;;;;;14.88;7.00;;;;;;;16.75;69.24;95011.53;5015819;28;20207;-73
2023/10/23 03:29:31;;;;;;;15.93;8.00;;;;;;;16.74;69.59;95010.72;5015933;28;20197;-73
2023/10/23 03:32:01;;;;;;;15.77;8.60;;;;;;;16.68;70.02;95020.63;5015855;28;20187;-73
2023/10/23 03:34:28;;;;;;;14.93;8.35;;;;;;;16.68;69.89;95015.06;5015150;28;20209;-73
2023/10/23 03:36:56;;;;;;;13.18;7.78;;;;;;;16.73;69.83;95011.06;5016068;28;20197;-73
2023/10/23 03:39:23;;;;;;;14.48;7.63;;;;;;;16.75;69.78;95006.75;5014830;28;20286;-73
2023/10/23 03:41:51;;;;;;;14.05;8.80;;;;;;;16.80;69.57;95008.34;5014836;28;20221;-73
2023/10/23 03:44:21;;;;;;;18.42;8.20;;;;;;;16.81;69.54;95012.72;5015541;28;20206;-73
2023/10/23 03:46:49;;;;;;;14.93;7.60;;;;;;;16.79;69.48;95015.13;5014659;28;20231;-72
2023/10/23 03:49:16;;;;;;;15.85;7.90;;;;;;;16.78;69.09;95010.75;5015395;28;20274;-72
2023/10/23 03:51:44;;;;;;;15.07;8.38;;;;;;;16.76;69.24;95013.91;5015542;28;20273;-72
2023/10/23 03:54:11;;;;;;;14.27;7.97;;;;;;;16.78;69.64;95005.16;5015435;28;20659;-72
2023/10/23 03:56:39;;;;;;;15.98;8.15;;;;;;;16.78;69.42;95005.16;5037938;28;20198;-72
2023/10/23 03:59:06;;;;;;;16.63;8.93;;;;;;;16.76;69.46;95013.91;5054947;28;20188;-69
2023/10/23 04:01:35;;;;;;;21.30;9.63;;;;;;;16.73;69.05;95017.44;5037701;28;20425;-73
2023/10/23 04:04:02;;;;;;;20.98;8.93;;;;;;;16.73;69.72;95014.66;5038479;28;20205;-69
2023/10/23 04:06:31;;;;;;;18.05;9.27;;;;;;;16.74;69.72;95013.53;5037796;28;20228;-68
2023/10/23 04:08:58;;;;;;;19.17;8.88;;;;;;;16.75;69.19;95019.88;5055112;28;20207;-68
2023/10/23 04:11:26;;;;;;;16.60;8.07;;;;;;;16.75;69.33;95011.53;5037514;28;20211;-68
2023/10/23 04:13:53;;;;;;;19.70;8.55;;;;;;;16.80;69.70;95013.91;5037245;28;20197;-67
2023/10/23 04:16:22;;;;;;;15.80;7.97;;;;;;;16.84;69.25;95018.28;5054949;28;20178;-68
2023/10/23 04:18:51;;;;;;;15.90;9.10;;;;;;;16.83;68.84;95013.91;5036908;28;20229;-68
2023/10/23 04:21:20;;;;;;;19.50;8.93;;;;;;;16.81;69.09;95019.09;5037114;28;20567;-68
2023/10/23 04:23:47;;;;;;;17.30;7.97;;;;;;;16.79;69.39;95020.69;5054890;28;20185;-68
2023/10/23 04:26:15;;;;;;;18.45;8.10;;;;;;;16.78;69.43;95022.69;5054478;28;20633;-68
2023/10/23 04:28:43;;;;;;;17.33;7.75;;;;;;;16.80;69.60;95020.28;5054868;28;20186;-68
2023/10/23 04:31:11;;;;;;;16.48;7.63;;;;;;;16.80;69.28;95025.06;5055609;28;20193;-68
2023/10/23 04:33:38;;;;;;;17.55;7.80;;;;;;;16.82;69.54;95025.47;5041154;28;20186;-68
2023/10/23 04:36:08;;;;;;;15.18;7.47;;;;;;;16.82;69.24;95031.03;5058979;28;20186;-68
2023/10/23 04:38:37;;;;;;;16.60;8.02;;;;;;;16.83;69.45;95032.63;5041984;28;20212;-72
2023/10/23 04:41:05;;;;;;;18.23;7.53;;;;;;;16.87;69.08;95027.84;5041052;28;20300;-68
2023/10/23 04:43:33;;;;;;;17.73;8.60;;;;;;;16.84;69.57;95026.66;5058315;28;20182;-68
2023/10/23 04:46:02;;;;;;;20.70;9.10;;;;;;;16.78;69.81;95028.25;5058277;28;20224;-68
2023/10/23 04:48:29;;;;;;;13.68;8.15;;;;;;;16.73;70.19;95033.34;5058151;28;20632;-68
2023/10/23 04:51:00;;;;;;;16.25;8.32;;;;;;;16.71;70.14;95032.97;5058945;28;20186;-68
2023/10/23 04:53:29;;;;;;;16.85;10.30;;;;;;;16.72;70.04;95027.00;5058159;28;20186;-68
2023/10/23 04:55:58;;;;;;;16.95;9.23;;;;;;;16.74;70.28;95037.75;5022283;28;20245;-68
2023/10/23 04:58:27;;;;;;;22.10;9.95;;;;;;;16.72;70.23;95029.78;5018527;28;20226;-68
2023/10/23 05:00:55;;;;;;;25.00;14.13;;;;;;;16.72;70.00;95037.34;5018840;28;20191;-67
2023/10/23 05:03:22;;;;;;;31.30;20.25;;;;;;;16.69;70.37;95033.34;5017566;28;20207;-68
2023/10/23 05:05:51;;;;;;;26.33;17.33;;;;;;;16.68;70.72;95031.75;5018130;28;20190;-68
2023/10/23 05:08:18;;;;;;;25.33;17.13;;;;;;;16.71;70.31;95047.69;5017537;28;20227;-69
2023/10/23 05:10:48;;;;;;;23.90;18.27;;;;;;;16.74;70.57;95048.91;5017130;28;20195;-68
2023/10/23 05:13:15;;;;;;;25.83;17.58;;;;;;;16.71;70.41;95052.47;5017441;28;20199;-68
2023/10/23 05:15:42;;;;;;;24.40;15.05;;;;;;;16.74;70.02;95044.16;5018100;28;20209;-68
2023/10/23 05:18:10;;;;;;;21.77;12.40;;;;;;;16.76;70.40;95055.69;5017234;28;20205;-68
2023/10/23 05:20:38;;;;;;;19.45;10.18;;;;;;;16.78;70.27;95047.75;5017488;28;20217;-68
2023/10/23 05:23:05;;;;;;;19.30;12.27;;;;;;;16.81;70.72;95054.50;5017249;28;20195;-68
2023/10/23 05:25:36;;;;;;;21.83;13.27;;;;;;;16.81;70.18;95058.09;5017108;28;20629;-68
2023/10/23 05:28:07;;;;;;;21.13;11.80;;;;;;;16.82;70.45;95064.47;5018532;28;20207;-68
2023/10/23 05:30:34;;;;;;;18.88;12.60;;;;;;;16.82;70.50;95067.25;5017646;28;20198;-69
2023/10/23 05:33:03;;;;;;;18.92;12.48;;;;;;;16.80;70.69;95061.25;5017102;28;20205;-68
2023/10/23 05:35:32;;;;;;;24.02;11.82;;;;;;;16.82;70.31;95053.31;5016733;28;20206;-68
2023/10/23 05:37:59;;;;;;;19.38;10.57;;;;;;;16.81;70.73;95054.50;5016717;28;20209;-68
2023/10/23 05:40:27;;;;;;;25.98;11.98;;;;;;;16.80;70.41;95061.25;5017875;28;20217;-68
2023/10/23 05:42:54;;;;;;;24.17;11.90;;;;;;;16.77;70.90;95065.63;5016268;28;20183;-68
2023/10/23 05:45:24;;;;;;;21.08;9.95;;;;;;;16.77;70.56;95062.84;5017331;28;20199;-68
2023/10/23 05:47:50;;;;;;;17.75;10.68;;;;;;;16.78;70.80;95060.88;5017539;28;20227;-68
2023/10/23 05:50:20;;;;;;;18.48;10.98;;;;;;;16.80;70.75;95064.03;5017137;28;20206;-68
2023/10/23 05:52:48;;;;;;;17.65;10.38;;;;;;;16.81;70.60;95065.63;5017320;28;20293;-68
2023/10/23 05:55:15;;;;;;;21.80;10.10;;;;;;;16.82;70.56;95068.03;5035360;28;20723;-68
2023/10/23 05:57:43;;;;;;;18.98;11.13;;;;;;;16.84;70.29;95074.00;5039704;28;20200;-68
2023/10/23 06:00:11;;;;;;;20.13;9.57;;;;;;;16.84;70.55;95076.78;5039366;28;20194;-68
2023/10/23 06:02:40;;;;;;;20.38;9.48;;;;;;;16.83;70.54;95080.78;5039792;28;20202;-70
2023/10/23 06:05:12;;;;;;;21.42;9.95;;;;;;;16.80;70.48;95075.19;5039622;28;20197;-72
2023/10/23 06:07:39;;;;;;;20.25;11.15;;;;;;;16.75;71.10;95086.72;5056613;28;20218;-72
2023/10/23 06:10:07;;;;;;;17.77;10.18;;;;;;;16.79;71.15;95087.53;5023133;28;20223;-72
2023/10/23 06:12:34;;;;;;;23.00;9.88;;;;;;;16.89;70.87;95094.34;5039437;28;20202;-72
2023/10/23 06:15:03;;;;;;;21.85;10.30;;;;;;;16.91;70.60;95092.72;5056933;28;20182;-72
2023/10/23 06:17:30;;;;;;;18.48;10.45;;;;;;;16.92;70.49;95091.56;5039412;28;20528;-72
2023/10/23 06:20:00;;;;;;;21.05;11.10;;;;;;;16.96;70.36;95094.34;5056786;28;20197;-72
2023/10/23 06:22:28;;;;;;;21.55;11.18;;;;;;;17.02;70.38;95092.75;5039310;28;20201;-72
2023/10/23 06:24:55;;;;;;;18.98;10.18;;;;;;;17.04;70.32;95093.19;5039770;28;20189;-72
2023/10/23 06:27:24;;;;;;;20.95;10.15;;;;;;;17.05;70.15;95103.13;5039089;28;20217;-72
2023/10/23 06:29:51;;;;;;;18.40;7.75;;;;;;;17.06;70.12;95104.72;5056649;28;20288;-72
2023/10/23 06:32:19;;;;;;;14.95;7.60;;;;;;;17.04;69.82;95104.31;5056489;28;20586;-72
2023/10/23 06:34:46;;;;;;;17.05;9.18;;;;;;;17.05;69.94;95109.50;5039221;28;20601;-72
2023/10/23 06:37:15;;;;;;;17.73;9.63;;;;;;;17.11;70.08;95106.34;5056537;28;20193;-72
2023/10/23 06:39:42;;;;;;;17.73;8.75;;;;;;;17.14;69.99;95111.09;5039561;28;20258;-72
2023/10/23 06:42:10;;;;;;;19.48;9.98;;;;;;;17.19;69.60;95107.94;5038905;28;20198;-72
2023/10/23 06:44:37;;;;;;;18.85;8.90;;;;;;;17.19;69.40;95111.53;5039623;28;20212;-72
2023/10/23 06:47:06;;;;;;;14.68;7.97;;;;;;;17.18;69.33;95103.56;5038748;28;20222;-72
2023/10/23 06:49:33;;;;;;;16.52;8.90;;;;;;;17.21;69.22;95114.72;5056455;28;20186;-72
2023/10/23 06:52:02;;;;;;;17.80;8.10;;;;;;;17.25;69.45;95109.94;5039249;28;20205;-72
2023/10/23 06:54:31;;;;;;;16.00;8.38;;;;;;;17.30;69.43;95117.13;5037937;28;20206;-72
2023/10/23 06:57:00;;;;;;;14.50;8.35;;;;;;;17.33;68.90;95119.13;5056036;28;20190;-72
2023/10/23 06:59:28;;;;;;;21.45;8.38;;;;;;;17.35;69.09;95121.50;5038272;28;20652;-72
2023/10/23 07:01:59;;;;;;;17.42;7.50;;;;;;;17.41;68.85;95123.50;5038489;28;20182;-72
2023/10/23 07:04:25;;;;;;;17.05;7.32;;;;;;;17.46;68.79;95122.31;5055773;28;20560;-72
2023/10/23 07:06:54;;;;;;;16.00;7.35;;;;;;;17.50;68.78;95125.91;5038357;28;20209;-72
2023/10/23 07:09:20;;;;;;;13.13;8.48;;;;;;;17.55;68.80;95126.31;5038718;28;20202;-72
2023/10/23 07:11:50;;;;;;;19.63;10.00;;;;;;;17.59;68.41;95126.34;5055810;28;20182;-71
2023/10/23 07:14:17;;;;;;;19.48;9.20;;;;;;;17.60;68.56;95125.13;5038571;28;20205;-72
2023/10/23 07:16:45;;;;;;;20.20;10.85;;;;;;;17.65;68.37;95133.13;5039105;28;20186;-72
2023/10/23 07:19:13;;;;;;;16.23;7.95;;;;;;;17.72;68.27;95127.53;5037959;28;20684;-72
2023/10/23 07:21:39;;;;;;;11.10;6.97;;;;;;;17.74;68.39;95122.34;5055832;28;20185;-71
2023/10/23 07:24:07;;;;;;;14.15;6.60;;;;;;;17.72;68.68;95123.94;5055590;28;20193;-72
2023/10/23 07:26:35;;;;;;;12.27;7.20;;;;;;;17.70;69.24;95129.91;5038286;28;20197;-72
2023/10/23 07:29:04;;;;;;;19.58;7.18;;;;;;;17.67;69.24;95130.72;5038839;28;20223;-72
2023/10/23 07:31:32;;;;;;;16.13;6.63;;;;;;;17.64;69.41;95127.91;5055813;28;20190;-71
2023/10/23 07:33:58;;;;;;;14.60;7.22;;;;;;;17.61;69.42;95123.97;5055545;28;20211;-71
2023/10/23 07:36:26;;;;;;;13.75;6.60;;;;;;;17.58;69.56;95129.53;5037654;28;20200;-72
2023/10/23 07:38:53;;;;;;;14.68;6.72;;;;;;;17.56;69.38;95125.13;5038670;28;20197;-71
2023/10/23 07:41:20;;;;;;;14.23;7.38;;;;;;;17.58;70.45;95127.53;5055248;28;20197;-72
2023/10/23 07:43:48;;;;;;;15.50;7.07;;;;;;;17.59;70.61;95119.97;5038357;28;20190;-71
2023/10/23 07:46:18;;;;;;;16.67;6.97;;;;;;;17.59;70.41;95120.75;5038641;28;20194;-72
2023/10/23 07:48:45;;;;;;;13.00;6.78;;;;;;;17.59;70.32;95115.19;5055239;28;20239;-72
2023/10/23 07:51:13;;;;;;;17.02;7.43;;;;;;;17.59;70.05;95115.19;5037736;28;20203;-71
2023/10/23 07:53:40;;;;;;;16.65;8.07;;;;;;;17.59;70.35;95115.19;5055234;28;20190;-71
2023/10/23 07:56:08;;;;;;;13.65;7.40;;;;;;;17.61;70.03;95111.97;5018481;28;20238;-75
2023/10/23 07:58:36;;;;;;;20.58;7.60;;;;;;;17.64;70.17;95125.13;5015233;28;20199;-71
2023/10/23 08:01:05;;;;;;;14.68;6.88;;;;;;;17.66;70.21;95120.75;5014650;28;20552;-72
2023/10/23 08:03:34;;;;;;;13.55;7.00;;;;;;;17.65;70.11;95108.03;5015189;28;20501;-70
2023/10/23 08:06:03;;;;;;;14.02;7.47;;;;;;;17.69;69.51;95127.53;5015513;28;20554;-71
2023/10/23 08:08:33;;;;;;;17.35;8.25;;;;;;;17.72;69.66;95118.34;5018847;28;20223;-72
2023/10/23 08:11:03;;;;;;;14.13;7.00;;;;;;;17.75;69.76;95117.56;5019585;28;20188;-72
2023/10/23 08:13:29;;;;;;;14.05;6.82;;;;;;;17.78;69.31;95120.38;5018605;28;20232;-72
2023/10/23 08:15:56;;;;;;;15.50;7.35;;;;;;;17.80;69.84;95114.44;5019469;28;20194;-72
2023/10/23 08:18:26;;;;;;;14.35;6.85;;;;;;;17.87;69.76;95110.84;5019778;28;20202;-71
2023/10/23 08:20:55;;;;;;;12.82;6.55;;;;;;;17.94;69.07;95111.63;5019616;28;20194;-71
2023/10/23 08:23:22;;;;;;;14.88;7.15;;;;;;;18.01;68.77;95121.97;5019540;28;20183;-72
2023/10/23 08:25:50;;;;;;;15.57;8.15;;;;;;;18.11;68.70;95110.00;5019110;28;20253;-71
2023/10/23 08:28:17;;;;;;;17.02;8.73;;;;;;;18.19;68.36;95108.00;5018864;28;20654;-71
2023/10/23 08:30:44;;;;;;;19.45;9.23;;;;;;;18.25;68.24;95112.78;5018327;28;20206;-71
2023/10/23 08:33:11;;;;;;;16.33;8.85;;;;;;;18.31;67.93;95115.19;5018992;28;20218;-71
2023/10/23 08:35:38;;;;;;;19.25;8.95;;;;;;;18.37;67.84;95110.75;5018342;28;20201;-71
2023/10/23 08:38:07;;;;;;;21.20;9.60;;;;;;;18.56;67.87;95107.53;5018792;28;20562;-71
2023/10/23 08:40:36;;;;;;;20.92;9.43;;;;;;;18.77;66.33;95109.47;5018059;28;20196;-71
2023/10/23 08:43:03;;;;;;;21.10;10.45;;;;;;;18.94;65.47;95108.59;5018703;28;20210;-71
2023/10/23 08:45:33;;;;;;;19.30;10.43;;;;;;;18.99;65.52;95099.00;5018511;28;20199;-71
2023/10/23 08:47:59;;;;;;;18.05;9.15;;;;;;;18.93;65.24;95107.03;5018772;28;20237;-71
2023/10/23 08:50:27;;;;;;;22.02;10.02;;;;;;;19.10;65.16;95107.31;5017914;28;20191;-71
2023/10/23 08:52:58;;;;;;;20.55;9.43;;;;;;;19.31;64.37;95100.81;5017901;28;20207;-71
2023/10/23 08:55:30;;;;;;;18.88;9.38;;;;;;;19.45;63.58;95100.75;5018009;28;20238;-71
2023/10/23 08:57:59;;;;;;;18.75;9.02;;;;;;;19.54;62.89;95098.28;5018055;28;20526;-71
2023/10/23 09:00:27;;;;;;;20.33;9.18;;;;;;;19.65;62.22;95101.84;5017363;28;20196;-71
2023/10/23 09:02:54;;;;;;;21.13;9.85;;;;;;;19.73;62.68;95108.19;5017771;28;20198;-71
2023/10/23 09:05:23;;;;;;;19.95;9.60;;;;;;;19.85;62.13;95110.47;5018181;28;20619;-71
2023/10/23 09:07:53;;;;;;;18.00;9.93;;;;;;;19.95;61.93;95103.19;5018480;28;20222;-71
2023/10/23 09:10:21;;;;;;;20.80;10.50;;;;;;;20.04;61.53;95097.13;5017541;28;20241;-72
2023/10/23 09:12:56;;;;;;;17.52;9.82;;;;;;;20.20;60.81;95098.19;5018226;28;20187;-71
2023/10/23 09:15:27;;;;;;;20.67;10.50;;;;;;;20.32;61.00;95096.06;5018429;28;20349;-71
2023/10/23 09:17:54;;;;;;;16.75;9.75;;;;;;;20.44;59.86;95101.94;5018135;28;20599;-71
2023/10/23 09:20:23;;;;;;;17.35;10.95;;;;;;;20.40;59.12;95100.38;5018589;28;20226;-71
2023/10/23 09:22:50;;;;;;;19.63;9.63;;;;;;;20.40;59.51;95095.56;5016964;28;20198;-71
2023/10/23 09:25:18;;;;;;;18.25;9.98;;;;;;;20.48;59.90;95095.50;5018181;28;20183;-71
2023/10/23 09:27:46;;;;;;;14.75;9.07;;;;;;;20.60;59.14;95089.41;5017081;28;20199;-71
2023/10/23 09:30:21;;;;;;;18.00;9.10;;;;;;;20.80;58.85;95092.34;5018436;28;20187;-71
2023/10/23 09:32:53;;;;;;;21.10;9.32;;;;;;;20.83;58.31;95095.13;5018544;28;20215;-71
2023/10/23 09:35:20;;;;;;;16.27;8.95;;;;;;;20.73;58.15;95086.84;5018354;28;20201;-71
2023/10/23 09:37:48;;;;;;;16.65;8.73;;;;;;;20.57;58.47;95084.63;5017956;28;20195;-71
2023/10/23 09:40:20;;;;;;;17.67;9.05;;;;;;;20.45;58.73;95088.72;5017176;28;20494;-71
2023/10/23 09:42:49;;;;;;;23.88;8.80;;;;;;;20.37;59.47;95081.59;5018086;28;20233;-71
2023/10/23 09:45:20;;;;;;;14.60;8.77;;;;;;;20.36;59.80;95074.41;5017719;28;20210;-71
2023/10/23 09:47:48;;;;;;;20.20;9.95;;;;;;;20.53;59.42;95075.47;5017136;28;20199;-71
2023/10/23 09:50:15;;;;;;;20.95;10.23;;;;;;;20.54;58.46;95074.25;5017801;28;20202;-71
2023/10/23 09:52:44;;;;;;;21.55;9.80;;;;;;;20.49;58.72;95069.88;5018011;28;20187;-71
2023/10/23 09:55:12;;;;;;;19.45;8.95;;;;;;;20.55;58.67;95070.22;5016581;28;20242;-71
2023/10/23 09:57:41;;;;;;;21.05;10.27;;;;;;;20.70;59.29;95076.47;5017534;28;20187;-72
2023/10/23 10:00:16;;;;;;;16.95;9.23;;;;;;;20.77;58.20;95071.59;5016606;28;20198;-72
2023/10/23 10:02:46;;;;;;;20.90;9.10;;;;;;;20.91;58.45;95054.59;5016814;28;20293;-71
2023/10/23 10:05:18;;;;;;;21.52;9.15;;;;;;;21.02;57.67;95064.84;5016385;28;20209;-71
2023/10/23 10:07:50;;;;;;;21.05;9.02;;;;;;;21.00;57.89;95051.25;5016747;28;20211;-71
2023/10/23 10:10:19;;;;;;;23.50;9.15;;;;;;;20.98;57.96;95050.88;5017196;28;20496;-71
2023/10/23 10:12:48;;;;;;;20.13;8.63;;;;;;;20.89;58.34;95045.00;5017323;28;20191;-71
2023/10/23 10:15:15;;;;;;;15.20;8.75;;;;;;;20.79;58.39;95054.34;5000227;28;20630;-72
2023/10/23 10:17:43;;;;;;;19.58;9.23;;;;;;;20.68;58.63;95044.06;5017059;28;20218;-71
2023/10/23 10:20:14;;;;;;;16.52;8.75;;;;;;;20.62;58.59;95036.53;5017071;28;20191;-71
2023/10/23 10:22:43;;;;;;;17.20;9.18;;;;;;;20.56;58.15;95041.81;5017101;28;20188;-71
2023/10/23 10:25:11;;;;;;;18.75;9.43;;;;;;;20.49;58.54;95044.66;5016652;28;20210;-71
2023/10/23 10:27:40;;;;;;;18.52;8.52;;;;;;;20.41;58.76;95040.38;5017334;28;20203;-71
2023/10/23 10:30:09;;;;;;;18.02;9.15;;;;;;;20.37;59.23;95040.41;5015035;28;20222;-71
2023/10/23 10:32:39;;;;;;;16.50;8.75;;;;;;;20.38;59.25;95033.56;5016618;28;20524;-72
2023/10/23 10:35:31;;;;;;;17.05;9.80;;;;;;;20.39;59.08;95026.75;5016882;28;20238;-71
2023/10/23 10:37:59;;;;;;;15.13;8.40;;;;;;;20.37;58.90;95026.41;5016555;28;20603;-71
2023/10/23 10:40:26;;;;;;;15.98;8.50;;;;;;;20.51;59.42;95030.25;5017346;28;20187;-71
2023/10/23 10:42:57;;;;;;;19.70;8.32;;;;;;;20.80;58.58;95027.91;5016392;28;20204;-71
2023/10/23 10:45:27;;;;;;;22.58;8.70;;;;;;;21.11;57.47;95023.06;5016135;28;20285;-74
2023/10/23 10:47:55;;;;;;;21.55;9.25;;;;;;;21.27;57.23;95014.81;5016307;28;20249;-71
2023/10/23 10:50:35;;;;;;;21.02;9.73;;;;;;;21.46;56.97;95013.38;5016502;28;20191;-73
2023/10/23 10:53:04;;;;;;;17.15;8.27;;;;;;;21.56;55.44;95006.78;5015917;28;20202;-72
2023/10/23 10:55:33;;;;;;;18.02;8.48;;;;;;;21.76;55.19;95004.06;5015763;28;20242;-70
2023/10/23 10:58:01;;;;;;;17.10;8.65;;;;;;;21.87;55.37;94995.44;5016527;28;20190;-71
2023/10/23 11:00:31;;;;;;;21.10;8.40;;;;;;;21.98;54.97;94995.25;5032704;28;20192;-71
2023/10/23 11:02:59;;;;;;;14.60;7.63;;;;;;;21.99;54.48;94986.38;5016730;28;20210;-71
2023/10/23 11:05:26;;;;;;;12.60;7.35;;;;;;;22.04;52.99;94990.72;5016365;28;20191;-71
2023/10/23 11:07:56;;;;;;;13.85;6.18;;;;;;;22.14;50.18;94986.94;5015385;28;20202;-71
2023/10/23 11:10:23;;;;;;;17.02;7.03;;;;;;;22.19;50.66;94978.03;5016374;28;20207;-71
2023/10/23 11:12:51;;;;;;;14.73;6.47;;;;;;;22.23;51.74;94977.97;5016196;28;20254;-71
2023/10/23 11:15:18;;;;;;;13.00;6.10;;;;;;;22.28;51.04;94981.06;5016432;28;20195;-71
2023/10/23 11:17:46;;;;;;;19.40;7.28;;;;;;;22.44;49.92;94973.91;5016021;28;20187;-71
2023/10/23 11:20:15;;;;;;;14.68;5.75;;;;;;;22.50;48.64;94972.19;5032182;28;20207;-71
2023/10/23 11:22:44;;;;;;;17.55;5.65;;;;;;;22.61;47.70;94969.97;5031220;28;20623;-71
2023/10/23 11:25:12;;;;;;;13.65;5.22;;;;;;;22.68;48.01;94972.63;5015611;28;20187;-71
2023/10/23 11:27:41;;;;;;;15.38;6.25;;;;;;;22.64;47.67;94971.91;5015603;28;20197;-71
2023/10/23 11:30:08;;;;;;;15.80;5.75;;;;;;;22.51;46.99;94974.59;5015462;28;20219;-71